createdAt,value
2022-08-21T00:01:51.556Z,90.10
2022-08-21T00:04:22.264Z,90.60
2022-08-21T00:06:50.762Z,89.60
2022-08-21T00:09:18.421Z,89.40
2022-08-21T00:11:45.797Z,90.20
2022-08-21T00:14:14.072Z,90.70
2022-08-21T00:16:42.018Z,90.60
2022-08-21T00:19:09.399Z,91.20
2022-08-21T00:21:37.223Z,92.30
2022-08-21T00:24:04.544Z,92.60
2022-08-21T00:26:31.534Z,92.80
2022-08-21T00:28:59.021Z,93.20
2022-08-21T00:31:26.413Z,93.80
2022-08-21T00:33:54.367Z,93.60
2022-08-21T00:36:27.826Z,93.40
2022-08-21T00:38:54.767Z,93.80
2022-08-21T00:41:38.259Z,94.80
2022-08-21T00:44:13.927Z,95.40
2022-08-21T00:46:41.607Z,96.00
2022-08-21T00:49:09.262Z,95.80
2022-08-21T00:51:48.012Z,96.40
2022-08-21T00:54:18.498Z,98.00
2022-08-21T00:56:49.086Z,98.30
2022-08-21T00:59:18.828Z,98.50
2022-08-21T01:01:46.056Z,99.10
2022-08-21T01:04:13.698Z,99.80
2022-08-21T01:06:40.767Z,99.20
2022-08-21T01:09:07.752Z,99.20
2022-08-21T01:11:35.352Z,98.70
2022-08-21T01:14:02.979Z,98.60
2022-08-21T01:16:30.232Z,98.90
2022-08-21T01:18:59.138Z,99.10
2022-08-21T01:21:28.695Z,99.30
2022-08-21T01:23:57.823Z,99.70
2022-08-21T01:26:31.207Z,99.40
2022-08-21T01:29:49.265Z,98.50
2022-08-21T01:32:19.139Z,98.60
2022-08-21T01:34:48.213Z,98.40
2022-08-21T01:37:16.177Z,98.00
2022-08-21T01:39:45.905Z,98.00
2022-08-21T01:42:13.988Z,98.00
2022-08-21T01:44:41.564Z,97.60
2022-08-21T01:47:11.559Z,97.70
2022-08-21T01:49:39.704Z,97.00
2022-08-21T01:52:09.521Z,96.90
2022-08-21T01:54:37.690Z,97.20
2022-08-21T01:57:06.014Z,96.70
2022-08-21T01:59:33.634Z,96.20
2022-08-21T02:02:00.554Z,96.10
2022-08-21T02:04:27.813Z,95.70
2022-08-21T02:06:54.665Z,95.00
2022-08-21T02:09:22.705Z,94.50
2022-08-21T02:11:52.267Z,94.50
2022-08-21T02:14:27.149Z,94.30
2022-08-21T02:17:05.392Z,94.40
2022-08-21T02:19:40.241Z,94.20
2022-08-21T02:22:11.928Z,94.10
2022-08-21T02:24:53.754Z,93.80
2022-08-21T02:27:26.068Z,93.70
2022-08-21T02:29:56.281Z,93.50
2022-08-21T02:32:23.167Z,93.20
2022-08-21T02:34:50.848Z,93.60
2022-08-21T02:37:17.822Z,93.60
2022-08-21T02:39:44.782Z,94.40
2022-08-21T02:42:11.669Z,94.60
2022-08-21T02:44:38.567Z,95.20
2022-08-21T02:47:05.836Z,96.00
2022-08-21T02:49:32.786Z,97.20
2022-08-21T02:52:00.186Z,97.70
2022-08-21T02:54:27.086Z,98.90
2022-08-21T02:56:54.019Z,98.90
2022-08-21T02:59:20.937Z,98.80
2022-08-21T03:01:47.987Z,99.00
2022-08-21T03:04:14.984Z,98.90
2022-08-21T03:06:41.894Z,99.10
2022-08-21T03:09:08.788Z,98.70
2022-08-21T03:11:37.917Z,98.90
2022-08-21T03:14:07.270Z,99.20
2022-08-21T03:16:35.286Z,99.60
2022-08-21T03:19:03.244Z,99.90
2022-08-21T03:21:30.283Z,99.90
2022-08-21T03:23:57.195Z,99.90
2022-08-21T03:26:25.292Z,99.90
2022-08-21T03:28:52.436Z,99.90
2022-08-21T03:31:19.418Z,99.90
2022-08-21T03:33:46.411Z,99.90
2022-08-21T03:36:13.467Z,99.90
2022-08-21T03:38:41.015Z,99.90
2022-08-21T03:41:08.787Z,99.90
2022-08-21T03:43:36.587Z,99.90
2022-08-21T03:46:04.791Z,99.90
2022-08-21T03:48:32.454Z,99.90
2022-08-21T03:50:59.565Z,99.90
2022-08-21T03:53:26.811Z,99.90
2022-08-21T03:55:54.340Z,99.90
2022-08-21T03:58:24.389Z,99.90
2022-08-21T04:00:53.460Z,99.90
2022-08-21T04:03:20.909Z,99.90
2022-08-21T04:05:47.925Z,99.90
2022-08-21T04:08:18.310Z,99.90
2022-08-21T04:10:47.378Z,99.90
2022-08-21T04:13:15.815Z,99.90
2022-08-21T04:15:42.980Z,99.90
2022-08-21T04:18:11.572Z,99.90
2022-08-21T04:20:39.229Z,99.90
2022-08-21T04:23:06.118Z,99.90
2022-08-21T04:25:34.148Z,99.90
2022-08-21T04:28:04.765Z,99.90
2022-08-21T04:30:32.224Z,99.90
2022-08-21T04:32:59.831Z,99.90
2022-08-21T04:35:28.850Z,99.90
2022-08-21T04:37:56.232Z,99.90
2022-08-21T04:40:25.748Z,99.90
2022-08-21T04:43:00.241Z,99.90
2022-08-21T04:45:36.147Z,99.90
2022-08-21T04:48:09.588Z,99.90
2022-08-21T04:51:19.463Z,99.90
2022-08-21T04:53:55.009Z,99.90
2022-08-21T04:56:29.576Z,99.90
2022-08-21T04:58:59.388Z,99.90
2022-08-21T05:01:30.159Z,99.90
2022-08-21T05:04:00.534Z,99.90
2022-08-21T05:06:31.585Z,99.90
2022-08-21T05:09:01.964Z,98.50
2022-08-21T05:11:31.438Z,95.00
2022-08-21T05:13:58.757Z,90.40
2022-08-21T05:16:36.821Z,82.60
2022-08-21T05:19:08.350Z,72.30
2022-08-21T05:21:36.633Z,63.70
2022-08-21T05:24:03.949Z,56.30
2022-08-21T05:26:31.338Z,47.60
2022-08-21T05:28:58.218Z,44.40
2022-08-21T05:31:25.580Z,41.70
2022-08-21T05:33:52.490Z,40.60
2022-08-21T05:36:20.188Z,34.20
2022-08-21T05:38:47.692Z,34.20
2022-08-21T05:41:14.581Z,29.40
2022-08-21T05:43:41.482Z,29.20
2022-08-21T05:46:09.458Z,28.60
2022-08-21T05:48:37.257Z,28.90
2022-08-21T05:51:09.563Z,28.70
2022-08-21T05:53:38.032Z,23.60
2022-08-21T05:56:06.160Z,20.90
2022-08-21T05:58:34.619Z,21.10
2022-08-21T06:01:03.468Z,22.30
2022-08-21T06:03:32.949Z,22.20
2022-08-21T06:05:59.938Z,21.20
2022-08-21T06:08:27.944Z,15.70
2022-08-21T06:10:56.802Z,12.70
2022-08-21T06:13:24.739Z,12.40
2022-08-21T06:16:01.615Z,11.30
2022-08-21T06:18:28.581Z,12.40
2022-08-21T06:20:55.483Z,9.70
2022-08-21T06:23:33.363Z,9.00
2022-08-21T06:26:01.708Z,6.30
2022-08-21T06:28:28.807Z,6.40
2022-08-21T06:30:55.931Z,3.00
2022-08-21T06:33:22.972Z,2.40
2022-08-21T06:35:49.886Z,1.00
2022-08-21T06:38:16.865Z,1.00
2022-08-21T06:40:47.190Z,1.20
2022-08-21T06:43:17.131Z,1.00
2022-08-21T06:45:44.790Z,1.00
2022-08-21T06:48:15.624Z,1.00
2022-08-21T06:50:45.466Z,1.00
2022-08-21T06:53:13.973Z,1.00
2022-08-21T06:55:43.050Z,1.00
2022-08-21T06:58:11.124Z,1.00
2022-08-21T07:00:41.916Z,1.00
2022-08-21T07:03:17.195Z,1.00
2022-08-21T07:05:44.097Z,1.00
2022-08-21T07:08:11.009Z,1.00
2022-08-21T07:10:37.932Z,1.00
2022-08-21T07:13:04.960Z,1.00
2022-08-21T07:15:33.643Z,1.00
2022-08-21T07:18:01.029Z,1.00
2022-08-21T07:20:29.204Z,1.00
2022-08-21T07:22:58.586Z,1.00
2022-08-21T07:25:25.591Z,1.00
2022-08-21T07:27:52.645Z,1.00
2022-08-21T07:30:19.902Z,1.00
2022-08-21T07:32:46.896Z,1.00
2022-08-21T07:35:14.025Z,1.00
2022-08-21T07:37:40.882Z,1.00
2022-08-21T07:40:08.968Z,1.00
2022-08-21T07:42:42.234Z,1.00
2022-08-21T07:45:10.409Z,1.00
2022-08-21T07:47:42.433Z,1.00
2022-08-21T07:50:12.468Z,1.00
2022-08-21T07:52:40.522Z,1.00
2022-08-21T07:55:09.902Z,1.00
2022-08-21T07:57:36.913Z,1.00
2022-08-21T08:00:09.912Z,1.00
2022-08-21T08:02:36.942Z,1.00
2022-08-21T08:05:12.125Z,1.00
2022-08-21T08:07:39.690Z,1.00
2022-08-21T08:10:08.545Z,1.00
2022-08-21T08:12:39.987Z,1.00
2022-08-21T08:15:09.486Z,1.00
2022-08-21T08:17:37.138Z,1.00
2022-08-21T08:20:04.773Z,1.00
2022-08-21T08:22:31.788Z,1.00
2022-08-21T08:24:58.933Z,1.00
2022-08-21T08:27:25.997Z,1.00
2022-08-21T08:29:52.981Z,1.00
2022-08-21T08:32:21.051Z,1.00
2022-08-21T08:34:49.769Z,1.00
2022-08-21T08:37:17.400Z,1.00
2022-08-21T08:39:44.981Z,1.00
2022-08-21T08:42:34.262Z,1.00
2022-08-21T08:45:14.202Z,1.00
2022-08-21T08:47:45.623Z,1.00
2022-08-21T08:50:19.347Z,1.00
2022-08-21T08:52:55.222Z,1.00
2022-08-21T08:55:33.229Z,1.00
2022-08-21T08:58:00.537Z,1.00
2022-08-21T09:00:27.574Z,1.00
2022-08-21T09:02:59.634Z,1.00
2022-08-21T09:05:28.744Z,1.00
2022-08-21T09:07:55.592Z,1.00
2022-08-21T09:10:47.831Z,1.00
2022-08-21T09:13:28.823Z,1.00
2022-08-21T09:16:27.056Z,1.00
2022-08-21T09:19:27.318Z,1.00
2022-08-21T09:22:15.239Z,1.00
2022-08-21T09:25:15.450Z,1.00
2022-08-21T09:27:42.880Z,1.00
2022-08-21T09:30:12.406Z,1.00
2022-08-21T09:32:40.339Z,1.00
2022-08-21T09:35:12.626Z,1.00
2022-08-21T09:38:25.278Z,1.00
2022-08-21T09:41:04.635Z,1.00
2022-08-21T09:43:32.393Z,1.00
2022-08-21T09:46:13.152Z,1.00
2022-08-21T09:49:06.957Z,1.00
2022-08-21T09:51:53.100Z,1.00
2022-08-21T09:54:27.411Z,1.00
2022-08-21T09:57:24.906Z,1.00
2022-08-21T09:59:52.141Z,1.00
2022-08-21T10:02:47.980Z,1.00
2022-08-21T10:05:21.198Z,1.00
2022-08-21T10:07:49.340Z,1.00
2022-08-21T10:10:25.616Z,1.00
2022-08-21T10:13:18.186Z,1.00
2022-08-21T10:16:17.301Z,1.00
2022-08-21T10:19:27.128Z,1.00
2022-08-21T10:22:02.185Z,1.00
2022-08-21T10:24:57.143Z,1.00
2022-08-21T10:27:50.862Z,1.00
2022-08-21T10:30:52.325Z,1.00
2022-08-21T10:33:44.098Z,1.00
2022-08-21T10:36:27.654Z,1.00
2022-08-21T10:39:23.691Z,1.00
2022-08-21T10:42:19.035Z,1.00
2022-08-21T10:45:30.503Z,1.00
2022-08-21T10:48:05.060Z,1.00
2022-08-21T10:50:55.448Z,1.00
2022-08-21T10:53:42.908Z,1.00
2022-08-21T10:56:28.016Z,1.00
2022-08-21T10:59:25.376Z,1.00
2022-08-21T11:02:12.567Z,1.00
2022-08-21T11:05:12.106Z,1.00
2022-08-21T11:08:05.038Z,1.00
2022-08-21T11:10:57.851Z,1.00
2022-08-21T11:13:48.198Z,1.00
2022-08-21T11:16:47.799Z,1.00
2022-08-21T11:19:29.023Z,1.00
2022-08-21T11:22:14.559Z,1.00
2022-08-21T11:25:09.932Z,1.00
2022-08-21T11:27:56.268Z,1.00
2022-08-21T11:30:29.580Z,1.00
2022-08-21T11:33:11.209Z,1.00
2022-08-21T11:35:52.731Z,1.00
2022-08-21T11:38:41.422Z,1.00
2022-08-21T11:41:33.705Z,1.00
2022-08-21T11:44:39.439Z,1.00
2022-08-21T11:47:52.061Z,1.00
2022-08-21T11:50:35.716Z,1.00
2022-08-21T11:53:15.751Z,1.00
2022-08-21T11:55:59.305Z,1.00
2022-08-21T11:58:50.150Z,1.00
2022-08-21T12:01:25.321Z,1.00
2022-08-21T12:04:10.745Z,1.00
2022-08-21T12:06:41.404Z,1.00
2022-08-21T12:09:30.898Z,1.00
2022-08-21T12:12:35.192Z,1.00
2022-08-21T12:15:21.169Z,1.00
2022-08-21T12:18:22.084Z,1.00
2022-08-21T12:21:21.240Z,1.00
2022-08-21T12:24:04.150Z,1.00
2022-08-21T12:26:49.771Z,1.00
2022-08-21T12:29:32.711Z,1.00
2022-08-21T12:32:20.157Z,1.00
2022-08-21T12:34:56.266Z,1.00
2022-08-21T12:37:31.058Z,1.00
2022-08-21T12:40:01.839Z,1.00
2022-08-21T12:42:56.598Z,1.00
2022-08-21T12:45:42.745Z,1.00
2022-08-21T12:48:34.126Z,1.00
2022-08-21T12:51:32.293Z,1.00
2022-08-21T12:54:00.796Z,1.00
2022-08-21T12:56:33.632Z,1.00
2022-08-21T12:59:11.984Z,1.00
2022-08-21T13:01:52.656Z,1.00
2022-08-21T13:04:37.388Z,1.00
2022-08-21T13:07:08.536Z,1.00
2022-08-21T13:09:35.524Z,1.00
2022-08-21T13:12:02.621Z,1.00
2022-08-21T13:14:38.413Z,1.00
2022-08-21T13:17:14.083Z,1.00
2022-08-21T13:19:59.479Z,1.00
2022-08-21T13:22:33.287Z,1.00
2022-08-21T13:25:05.896Z,1.00
2022-08-21T13:27:35.457Z,1.00
2022-08-21T13:30:15.586Z,1.00
2022-08-21T13:32:47.177Z,1.00
2022-08-21T13:35:22.034Z,1.00
2022-08-21T13:37:52.816Z,1.00
2022-08-21T13:41:02.975Z,1.00
2022-08-21T13:43:34.028Z,1.00
2022-08-21T13:46:02.237Z,1.00
2022-08-21T13:48:34.065Z,1.00
2022-08-21T13:51:01.944Z,1.00
2022-08-21T13:53:32.806Z,1.00
2022-08-21T13:56:01.491Z,1.00
2022-08-21T13:58:29.774Z,1.00
2022-08-21T14:00:58.997Z,1.00
2022-08-21T14:03:39.285Z,1.00
2022-08-21T14:06:22.217Z,1.00
2022-08-21T14:08:56.300Z,1.00
2022-08-21T14:11:24.235Z,1.00
2022-08-21T14:13:59.139Z,1.00
2022-08-21T14:16:29.970Z,1.00
2022-08-21T14:19:25.270Z,1.00
2022-08-21T14:21:52.461Z,1.00
2022-08-21T14:24:30.773Z,1.00
2022-08-21T14:27:08.539Z,1.00
2022-08-21T14:29:42.103Z,1.00
2022-08-21T14:32:21.624Z,1.00
2022-08-21T14:34:51.917Z,1.00
2022-08-21T14:37:19.328Z,1.00
2022-08-21T14:39:46.679Z,1.00
2022-08-21T14:42:14.077Z,1.00
2022-08-21T14:44:41.008Z,1.00
2022-08-21T14:47:09.485Z,1.00
2022-08-21T14:49:36.518Z,1.00
2022-08-21T14:52:03.825Z,1.00
2022-08-21T14:54:32.672Z,1.00
2022-08-21T14:57:06.217Z,1.00
2022-08-21T14:59:34.275Z,1.00
2022-08-21T15:02:01.952Z,1.00
2022-08-21T15:04:29.152Z,1.00
2022-08-21T15:06:56.375Z,1.00
2022-08-21T15:09:23.492Z,1.00
2022-08-21T15:11:50.806Z,1.00
2022-08-21T15:14:24.808Z,1.00
2022-08-21T15:16:52.776Z,1.00
2022-08-21T15:19:19.848Z,1.00
2022-08-21T15:21:46.878Z,1.00
2022-08-21T15:24:13.843Z,1.00
2022-08-21T15:26:40.787Z,1.00
2022-08-21T15:29:08.980Z,1.00
2022-08-21T15:31:37.427Z,1.00
2022-08-21T15:34:04.867Z,1.00
2022-08-21T15:36:31.796Z,1.00
2022-08-21T15:38:58.843Z,1.00
2022-08-21T15:41:25.846Z,1.00
2022-08-21T15:43:54.274Z,1.00
2022-08-21T15:46:22.326Z,1.00
2022-08-21T15:48:49.569Z,1.00
2022-08-21T15:51:17.847Z,1.00
2022-08-21T15:53:45.698Z,1.00
2022-08-21T15:56:37.937Z,1.00
2022-08-21T15:59:17.972Z,1.00
2022-08-21T16:01:46.149Z,1.00
2022-08-21T16:04:26.928Z,1.00
2022-08-21T16:06:59.857Z,1.00
2022-08-21T16:09:30.881Z,1.00
2022-08-21T16:11:59.223Z,1.00
2022-08-21T16:14:26.496Z,1.00
2022-08-21T16:16:54.468Z,1.00
2022-08-21T16:19:21.958Z,1.00
2022-08-21T16:21:48.981Z,1.00
2022-08-21T16:24:15.864Z,1.00
2022-08-21T16:26:43.270Z,1.00
2022-08-21T16:29:11.050Z,1.00
2022-08-21T16:31:38.149Z,1.00
2022-08-21T16:34:05.158Z,1.00
2022-08-21T16:36:32.222Z,1.00
2022-08-21T16:39:00.916Z,1.00
2022-08-21T16:41:34.566Z,1.00
2022-08-21T16:44:02.695Z,1.00
2022-08-21T16:46:36.742Z,1.00
2022-08-21T16:49:04.607Z,1.00
2022-08-21T16:51:31.735Z,1.00
2022-08-21T16:53:59.655Z,1.00
2022-08-21T16:56:27.166Z,1.00
2022-08-21T16:58:55.871Z,1.00
2022-08-21T17:01:26.616Z,1.00
2022-08-21T17:03:54.078Z,1.00
2022-08-21T17:06:23.654Z,1.00
2022-08-21T17:08:56.615Z,1.00
2022-08-21T17:11:37.879Z,1.00
2022-08-21T17:14:19.645Z,1.00
2022-08-21T17:16:49.751Z,1.00
2022-08-21T17:19:17.631Z,1.00
2022-08-21T17:21:44.738Z,1.00
2022-08-21T17:24:15.564Z,1.00
2022-08-21T17:26:44.043Z,1.00
2022-08-21T17:29:14.643Z,1.00
2022-08-21T17:31:43.854Z,1.00
2022-08-21T17:34:11.636Z,1.00
2022-08-21T17:36:38.809Z,1.00
2022-08-21T17:39:06.010Z,1.00
2022-08-21T17:41:33.837Z,1.00
2022-08-21T17:44:07.192Z,1.00
2022-08-21T17:46:34.407Z,1.00
2022-08-21T17:49:01.708Z,1.00
2022-08-21T17:51:28.804Z,1.00
2022-08-21T17:53:55.908Z,1.00
2022-08-21T17:56:24.774Z,1.00
2022-08-21T17:58:52.168Z,1.00
2022-08-21T18:01:20.404Z,1.00
2022-08-21T18:03:47.831Z,1.00
2022-08-21T18:06:17.910Z,1.00
2022-08-21T18:08:46.103Z,1.00
2022-08-21T18:11:23.043Z,1.00
2022-08-21T18:13:51.795Z,1.00
2022-08-21T18:16:19.603Z,1.00
2022-08-21T18:18:51.955Z,1.00
2022-08-21T18:21:19.242Z,1.00
2022-08-21T18:23:46.596Z,1.00
2022-08-21T18:26:16.211Z,1.00
2022-08-21T18:28:44.370Z,1.00
2022-08-21T18:31:12.413Z,1.00
2022-08-21T18:33:41.404Z,1.00
2022-08-21T18:36:24.530Z,1.00
2022-08-21T18:38:52.879Z,1.00
2022-08-21T18:41:19.799Z,1.00
2022-08-21T18:43:46.860Z,1.00
2022-08-21T18:46:15.787Z,1.00
2022-08-21T18:48:43.939Z,1.00
2022-08-21T18:51:12.353Z,1.00
2022-08-21T18:53:39.619Z,1.00
2022-08-21T18:56:15.595Z,1.00
2022-08-21T18:58:44.394Z,1.00
2022-08-21T19:01:11.871Z,1.00
2022-08-21T19:03:38.862Z,1.00
2022-08-21T19:06:06.288Z,1.00
2022-08-21T19:08:36.845Z,1.00
2022-08-21T19:11:06.619Z,1.00
2022-08-21T19:13:34.501Z,1.00
2022-08-21T19:16:05.280Z,1.00
2022-08-21T19:18:35.506Z,1.00
2022-08-21T19:21:03.355Z,1.00
2022-08-21T19:23:31.167Z,1.00
2022-08-21T19:26:04.151Z,1.00
2022-08-21T19:28:37.278Z,1.00
2022-08-21T19:31:23.642Z,1.00
2022-08-21T19:33:58.978Z,1.00
2022-08-21T19:36:29.285Z,1.00
2022-08-21T19:38:56.537Z,1.00
2022-08-21T19:41:26.470Z,1.00
2022-08-21T19:43:57.318Z,1.00
2022-08-21T19:46:28.086Z,1.00
2022-08-21T19:48:56.478Z,1.00
2022-08-21T19:51:25.109Z,1.00
2022-08-21T19:53:57.294Z,1.00
2022-08-21T19:56:27.879Z,1.00
2022-08-21T19:58:56.769Z,1.00
2022-08-21T20:01:26.326Z,1.00
2022-08-21T20:03:54.803Z,1.00
2022-08-21T20:06:25.708Z,1.00
2022-08-21T20:08:54.979Z,1.00
2022-08-21T20:11:36.049Z,2.50
2022-08-21T20:14:04.172Z,3.70
2022-08-21T20:16:31.416Z,3.70
2022-08-21T20:18:59.294Z,5.00
2022-08-21T20:21:26.537Z,4.50
2022-08-21T20:23:53.433Z,5.40
2022-08-21T20:26:21.155Z,6.50
2022-08-21T20:28:50.504Z,7.70
2022-08-21T20:31:19.594Z,7.40
2022-08-21T20:33:49.544Z,10.30
2022-08-21T20:36:17.274Z,10.30
2022-08-21T20:38:44.803Z,11.60
2022-08-21T20:41:21.048Z,11.00
2022-08-21T20:43:58.571Z,12.30
2022-08-21T20:46:28.300Z,12.70
2022-08-21T20:48:55.617Z,13.30
2022-08-21T20:51:34.559Z,15.10
2022-08-21T20:54:27.514Z,17.40
2022-08-21T20:57:30.712Z,18.00
2022-08-21T20:59:59.803Z,19.00
2022-08-21T21:03:15.979Z,18.90
2022-08-21T21:05:55.024Z,22.00
2022-08-21T21:08:46.665Z,23.00
2022-08-21T21:11:50.150Z,24.10
2022-08-21T21:14:27.025Z,26.10
2022-08-21T21:16:58.916Z,27.50
2022-08-21T21:19:46.516Z,26.20
2022-08-21T21:22:38.426Z,29.70
2022-08-21T21:25:22.497Z,27.50
2022-08-21T21:27:57.747Z,27.50
2022-08-21T21:30:41.345Z,27.30
2022-08-21T21:33:16.453Z,28.10
2022-08-21T21:35:59.100Z,28.30
2022-08-21T21:38:35.426Z,30.00
2022-08-21T21:41:30.210Z,27.80
2022-08-21T21:47:47.433Z,29.30
2022-08-21T21:50:42.618Z,32.10
2022-08-21T21:53:30.084Z,32.70
2022-08-21T21:56:40.820Z,32.00
2022-08-21T21:59:54.214Z,37.40
2022-08-21T22:02:23.645Z,37.80
2022-08-21T22:05:07.107Z,35.80
2022-08-21T22:07:59.836Z,37.80
2022-08-21T22:10:43.147Z,36.40
2022-08-21T22:13:26.675Z,36.40
2022-08-21T22:15:55.234Z,36.80
2022-08-21T22:18:26.756Z,37.00
2022-08-21T22:21:35.127Z,42.50
2022-08-21T22:24:27.541Z,44.50
2022-08-21T22:27:19.139Z,44.20
2022-08-21T22:29:59.200Z,44.60
2022-08-21T22:32:50.242Z,45.40
2022-08-21T22:35:26.619Z,44.80
2022-08-21T22:37:58.521Z,43.80
2022-08-21T22:40:32.207Z,44.40
2022-08-21T22:43:14.766Z,47.50
2022-08-21T22:46:05.873Z,46.30
2022-08-21T22:48:37.273Z,51.30
2022-08-21T22:51:30.076Z,53.50
2022-08-21T22:54:00.217Z,52.60
2022-08-21T22:56:45.296Z,52.60
2022-08-21T22:59:41.740Z,52.60
2022-08-21T23:02:30.140Z,54.50
2022-08-21T23:04:59.916Z,56.80
2022-08-21T23:07:42.869Z,60.10
2022-08-21T23:10:32.659Z,60.80
2022-08-21T23:13:13.182Z,62.30
2022-08-21T23:16:25.071Z,62.30
2022-08-21T23:19:38.141Z,71.60
2022-08-21T23:22:31.991Z,69.20
2022-08-21T23:25:41.931Z,67.90
2022-08-21T23:28:48.442Z,70.10
2022-08-21T23:31:54.790Z,71.90
2022-08-21T23:34:52.556Z,77.80
2022-08-21T23:38:02.529Z,78.40
2022-08-21T23:43:59.693Z,80.10
2022-08-21T23:47:16.302Z,81.60
2022-08-21T23:50:05.667Z,81.20
2022-08-21T23:52:53.469Z,82.10
2022-08-21T23:55:43.721Z,82.60
2022-08-21T23:58:50.776Z,89.30
